Time;durP1;ratioP1;P1;durP2;ratioP2;P2;SDS_P1;SDS_P2;PMS_P1;PMS_P2;Temp;Humidity;BMP_temperature;BMP_pressure;BME280_temperature;BME280_humidity;BME280_pressure;Samples;Min_cycle;Max_cycle;Signal;HPM_P1;HPM_P2
2022/09/09 00:01:41;;;;;;;0.32;0.32;;;;;;;;;;5021869;28;20033;-80
2022/09/09 00:04:11;;;;;;;0.63;0.63;;;;;;;;;;5042827;28;20056;-77
2022/09/09 00:06:44;;;;;;;1.50;0.63;;;;;;;;;;5010063;28;20057;-76
2022/09/09 00:09:12;;;;;;;0.50;0.50;;;;;;;;;;5041332;28;20119;-79
2022/09/09 00:11:47;;;;;;;0.20;0.20;;;;;;;;;;5045460;28;20088;-78
2022/09/09 00:14:17;;;;;;;0.20;0.20;;;;;;;;;;5030308;28;20111;-80
2022/09/09 00:16:46;;;;;;;0.38;0.38;;;;;;;;;;5053099;28;20068;-81
2022/09/09 00:19:30;;;;;;;5.53;0.93;;;;;;;;;;5052959;28;20143;-79
2022/09/09 00:21:57;;;;;;;0.30;0.30;;;;;;;;;;5053504;28;20527;-80
2022/09/09 00:24:41;;;;;;;0.30;0.30;;;;;;;;;;5053552;28;20118;-77
2022/09/09 00:27:28;;;;;;;0.30;0.30;;;;;;;;;;5053395;28;20425;-77
2022/09/09 00:30:03;;;;;;;0.30;0.30;;;;;;;;;;5040356;28;20071;-81
2022/09/09 00:32:30;;;;;;;0.28;0.28;;;;;;;;;;5053406;28;20392;-80
2022/09/09 00:35:05;;;;;;;0.70;0.70;;;;;;;;;;5035599;28;20099;-80
2022/09/09 00:37:31;;;;;;;0.32;0.32;;;;;;;;;;5035156;28;20032;-80
2022/09/09 00:39:59;;;;;;;0.40;0.40;;;;;;;;;;5034341;28;20033;-82
2022/09/09 00:42:44;;;;;;;0.30;0.30;;;;;;;;;;5035628;28;20052;-80
2022/09/09 00:45:32;;;;;;;0.50;0.50;;;;;;;;;;5053076;28;20079;-82
2022/09/09 00:48:00;;;;;;;1.58;1.15;;;;;;;;;;5035297;28;20124;-80
2022/09/09 00:50:45;;;;;;;1.23;0.83;;;;;;;;;;5052684;28;20029;-79
2022/09/09 00:53:13;;;;;;;0.75;0.45;;;;;;;;;;5053190;28;20041;-78
2022/09/09 01:02:39;;;;;;;0.63;0.63;;;;;;;;;;5051944;28;20040;-81
2022/09/09 01:05:10;;;;;;;0.52;0.52;;;;;;;;;;5034903;28;20037;-81
2022/09/09 01:07:36;;;;;;;0.82;0.40;;;;;;;;;;5053071;28;20024;-80
2022/09/09 01:10:06;;;;;;;0.22;0.20;;;;;;;;;;5053005;28;20041;-79
2022/09/09 01:12:38;;;;;;;0.28;0.28;;;;;;;;;;5034297;28;20032;-80
2022/09/09 01:15:09;;;;;;;0.30;0.30;;;;;;;;;;5052891;28;20036;-79
2022/09/09 01:17:42;;;;;;;0.20;0.20;;;;;;;;;;5018436;28;20029;-79
2022/09/09 01:20:23;;;;;;;0.30;0.30;;;;;;;;;;5035506;28;20025;-79
2022/09/09 01:23:18;;;;;;;0.20;0.20;;;;;;;;;;5035032;28;20025;-79
2022/09/09 01:26:09;;;;;;;0.30;0.30;;;;;;;;;;5034878;28;20032;-79
2022/09/09 01:28:36;;;;;;;0.20;0.20;;;;;;;;;;5052878;28;20029;-81
2022/09/09 01:31:08;;;;;;;0.10;0.10;;;;;;;;;;5034733;28;20037;-80
2022/09/09 01:33:41;;;;;;;0.10;0.10;;;;;;;;;;5034987;28;20075;-80
2022/09/09 01:36:27;;;;;;;0.20;0.20;;;;;;;;;;5052572;28;20025;-79
2022/09/09 01:38:53;;;;;;;0.20;0.20;;;;;;;;;;5018591;28;20021;-78
2022/09/09 01:41:20;;;;;;;0.20;0.20;;;;;;;;;;5034870;28;20033;-76
2022/09/09 01:43:57;;;;;;;0.20;0.20;;;;;;;;;;5034793;28;20076;-79
2022/09/09 01:46:24;;;;;;;0.30;0.30;;;;;;;;;;5034703;28;20028;-79
2022/09/09 01:48:51;;;;;;;10.25;3.13;;;;;;;;;;5052392;28;20052;-78
2022/09/09 01:51:17;;;;;;;23.83;1.80;;;;;;;;;;5036156;28;20119;-78
2022/09/09 01:53:43;;;;;;;2.08;1.33;;;;;;;;;;5038500;28;20428;-80
2022/09/09 01:56:28;;;;;;;0.17;0.17;;;;;;;;;;5038587;28;20028;-79
2022/09/09 01:59:04;;;;;;;0.20;0.20;;;;;;;;;;5039046;28;20036;-80
2022/09/09 02:01:33;;;;;;;0.10;0.10;;;;;;;;;;5020462;28;20439;-80
2022/09/09 02:04:00;;;;;;;0.20;0.20;;;;;;;;;;5038071;28;20021;-80
2022/09/09 02:06:37;;;;;;;0.10;0.10;;;;;;;;;;5038126;28;20033;-80
2022/09/09 02:09:24;;;;;;;0.20;0.20;;;;;;;;;;5037652;28;20518;-81
2022/09/09 02:11:56;;;;;;;0.20;0.20;;;;;;;;;;5055753;28;20028;-78
2022/09/09 02:14:36;;;;;;;0.20;0.20;;;;;;;;;;5037822;28;20040;-79
2022/09/09 02:17:01;;;;;;;;;;;;;;;;;;5056386;28;20025;-77
2022/09/09 02:19:41;;;;;;;0.10;0.10;;;;;;;;;;5037869;28;20283;-77
2022/09/09 02:22:24;;;;;;;0.20;0.20;;;;;;;;;;5055554;28;20155;-77
2022/09/09 02:24:53;;;;;;;0.20;0.20;;;;;;;;;;5021403;28;20029;-78
2022/09/09 02:27:23;;;;;;;0.20;0.20;;;;;;;;;;5037929;28;20032;-78
2022/09/09 02:29:50;;;;;;;0.20;0.20;;;;;;;;;;5054258;28;20495;-77
2022/09/09 02:32:22;;;;;;;0.10;0.10;;;;;;;;;;5021580;28;20064;-76
2022/09/09 02:34:49;;;;;;;0.20;0.20;;;;;;;;;;5037400;28;20029;-78
2022/09/09 02:37:17;;;;;;;0.20;0.20;;;;;;;;;;5037431;28;20134;-76
2022/09/09 02:39:47;;;;;;;0.20;0.20;;;;;;;;;;5037573;28;20029;-76
2022/09/09 02:42:19;;;;;;;0.20;0.20;;;;;;;;;;5055546;28;20067;-79
2022/09/09 02:44:45;;;;;;;0.20;0.20;;;;;;;;;;5055075;28;20523;-79
2022/09/09 02:47:25;;;;;;;0.20;0.20;;;;;;;;;;5054507;28;20060;-78
2022/09/09 02:50:06;;;;;;;0.22;0.22;;;;;;;;;;5020729;28;20041;-78
2022/09/09 02:52:54;;;;;;;0.20;0.20;;;;;;;;;;5055175;28;20117;-77
2022/09/09 02:55:37;;;;;;;0.20;0.20;;;;;;;;;;5037104;28;20056;-77
2022/09/09 02:58:06;;;;;;;0.20;0.20;;;;;;;;;;5054905;28;20112;-76
2022/09/09 03:00:35;;;;;;;0.10;0.10;;;;;;;;;;5037293;28;20083;-75
2022/09/09 03:03:02;;;;;;;0.25;0.25;;;;;;;;;;5049781;28;20033;-75
2022/09/09 03:05:28;;;;;;;0.20;0.20;;;;;;;;;;5050899;28;20124;-75
2022/09/09 03:07:54;;;;;;;0.28;0.28;;;;;;;;;;5051508;28;20128;-76
2022/09/09 03:10:20;;;;;;;0.20;0.20;;;;;;;;;;5032696;28;20079;-78
2022/09/09 03:12:46;;;;;;;0.20;0.20;;;;;;;;;;5032848;28;20033;-76
2022/09/09 03:15:11;;;;;;;0.20;0.20;;;;;;;;;;5016836;28;20083;-77
2022/09/09 03:17:39;;;;;;;0.20;0.20;;;;;;;;;;5032899;28;20029;-77
2022/09/09 03:20:05;;;;;;;0.20;0.20;;;;;;;;;;5016166;28;20476;-78
2022/09/09 03:22:31;;;;;;;0.20;0.20;;;;;;;;;;5033013;28;20396;-77
2022/09/09 03:24:58;;;;;;;0.20;0.20;;;;;;;;;;5032527;28;20029;-77
2022/09/09 03:27:24;;;;;;;0.20;0.20;;;;;;;;;;5050621;28;20033;-78
2022/09/09 03:29:51;;;;;;;0.20;0.20;;;;;;;;;;5032810;28;20127;-77
2022/09/09 03:32:22;;;;;;;0.68;0.65;;;;;;;;;;5032408;28;20048;-75
2022/09/09 03:34:49;;;;;;;0.10;0.10;;;;;;;;;;5032609;28;20052;-78
2022/09/09 03:37:18;;;;;;;0.20;0.20;;;;;;;;;;5032349;28;20506;-79
2022/09/09 03:39:44;;;;;;;0.20;0.20;;;;;;;;;;5032370;28;20428;-79
2022/09/09 03:42:14;;;;;;;0.20;0.20;;;;;;;;;;5050654;28;20032;-78
2022/09/09 03:44:40;;;;;;;;;;;;;;;;;;5050516;28;20049;-79
2022/09/09 03:47:06;;;;;;;0.20;0.20;;;;;;;;;;5030388;28;19916;-79
2022/09/09 03:49:32;;;;;;;0.20;0.20;;;;;;;;;;5047241;28;20041;-79
2022/09/09 03:51:58;;;;;;;0.20;0.20;;;;;;;;;;5030146;28;20575;-79
2022/09/09 03:54:25;;;;;;;0.20;0.20;;;;;;;;;;5013850;28;20116;-79
2022/09/09 03:56:51;;;;;;;0.20;0.20;;;;;;;;;;5030629;28;20052;-79
2022/09/09 03:59:16;;;;;;;0.20;0.20;;;;;;;;;;5029533;28;20044;-79
2022/09/09 04:01:42;;;;;;;0.20;0.20;;;;;;;;;;5029447;28;20037;-79
2022/09/09 04:04:08;;;;;;;0.22;0.22;;;;;;;;;;5047817;28;20036;-77
2022/09/09 04:06:35;;;;;;;0.20;0.20;;;;;;;;;;5047900;28;20111;-77
2022/09/09 04:09:03;;;;;;;0.20;0.20;;;;;;;;;;5029592;28;20029;-75
2022/09/09 04:11:30;;;;;;;2.92;0.95;;;;;;;;;;5029534;28;20475;-74
2022/09/09 04:13:58;;;;;;;0.10;0.10;;;;;;;;;;5029693;28;20036;-75
2022/09/09 04:16:23;;;;;;;0.20;0.20;;;;;;;;;;5049229;28;20031;-76
2022/09/09 04:18:50;;;;;;;0.20;0.20;;;;;;;;;;5049816;28;20017;-77
2022/09/09 04:21:17;;;;;;;0.20;0.20;;;;;;;;;;5031368;28;20021;-79
2022/09/09 04:23:42;;;;;;;0.20;0.20;;;;;;;;;;5049227;28;20224;-78
2022/09/09 04:26:08;;;;;;;0.20;0.20;;;;;;;;;;5048496;28;20036;-76
2022/09/09 04:28:35;;;;;;;0.20;0.20;;;;;;;;;;5049265;28;20037;-79
2022/09/09 04:31:09;;;;;;;0.20;0.20;;;;;;;;;;5031311;28;20033;-77
2022/09/09 04:33:38;;;;;;;0.90;0.65;;;;;;;;;;5031299;28;20094;-79
2022/09/09 04:36:03;;;;;;;0.20;0.20;;;;;;;;;;5049343;28;20036;-77
2022/09/09 04:38:30;;;;;;;0.30;0.30;;;;;;;;;;5015343;28;20434;-76
2022/09/09 04:40:55;;;;;;;0.10;0.10;;;;;;;;;;5031362;28;20021;-79
2022/09/09 04:43:22;;;;;;;0.20;0.20;;;;;;;;;;5031142;28;20041;-79
2022/09/09 04:45:49;;;;;;;0.20;0.20;;;;;;;;;;5048508;28;20021;-80
2022/09/09 04:48:15;;;;;;;0.20;0.20;;;;;;;;;;5048704;28;20037;-77
2022/09/09 04:50:41;;;;;;;1.13;0.57;;;;;;;;;;5049030;28;20029;-75
2022/09/09 04:53:09;;;;;;;0.30;0.30;;;;;;;;;;5015227;28;20116;-75
2022/09/09 04:55:37;;;;;;;0.20;0.20;;;;;;;;;;5048898;28;20107;-77
2022/09/09 04:58:07;;;;;;;0.20;0.20;;;;;;;;;;5047047;28;20365;-77
2022/09/09 05:00:33;;;;;;;3.00;1.40;;;;;;;;;;5047142;28;20017;-79
2022/09/09 05:03:08;;;;;;;0.30;0.30;;;;;;;;;;5014815;28;20044;-78
2022/09/09 05:05:35;;;;;;;0.20;0.20;;;;;;;;;;5029854;28;20029;-76
2022/09/09 05:08:05;;;;;;;0.20;0.20;;;;;;;;;;5049051;28;20028;-77
2022/09/09 05:10:31;;;;;;;0.50;0.50;;;;;;;;;;5031282;28;20707;-79
2022/09/09 05:12:58;;;;;;;0.20;0.20;;;;;;;;;;5048486;28;20419;-78
2022/09/09 05:15:26;;;;;;;0.20;0.20;;;;;;;;;;5048564;28;20033;-78
2022/09/09 05:17:54;;;;;;;2.63;1.27;;;;;;;;;;5048793;28;20480;-77
2022/09/09 05:20:20;;;;;;;0.20;0.20;;;;;;;;;;5024929;28;20496;-75
2022/09/09 05:22:45;;;;;;;1.35;0.52;;;;;;;;;;5041551;28;20083;-80
2022/09/09 05:25:11;;;;;;;1.95;1.63;;;;;;;;;;5028911;28;20022;-75
2022/09/09 05:27:37;;;;;;;19.80;0.85;;;;;;;;;;5042099;28;20053;-79
2022/09/09 05:30:04;;;;;;;0.30;0.30;;;;;;;;;;5044160;28;20081;-78
2022/09/09 05:32:33;;;;;;;0.20;0.20;;;;;;;;;;5013814;28;20032;-78
2022/09/09 05:34:58;;;;;;;0.90;0.90;;;;;;;;;;5031145;28;20036;-77
2022/09/09 05:37:25;;;;;;;0.40;0.40;;;;;;;;;;5033916;28;20025;-78
2022/09/09 05:39:53;;;;;;;0.20;0.20;;;;;;;;;;5052901;28;20041;-78
2022/09/09 05:42:19;;;;;;;0.43;0.43;;;;;;;;;;5031303;28;20111;-77
2022/09/09 05:44:45;;;;;;;0.20;0.20;;;;;;;;;;5033000;28;20052;-78
2022/09/09 05:47:11;;;;;;;8.60;1.30;;;;;;;;;;5031691;28;20462;-78
2022/09/09 05:49:37;;;;;;;1.25;0.98;;;;;;;;;;5033201;28;20032;-77
2022/09/09 05:52:03;;;;;;;0.35;0.35;;;;;;;;;;5050832;28;20110;-78
2022/09/09 05:54:29;;;;;;;0.20;0.20;;;;;;;;;;5033003;28;20085;-77
2022/09/09 05:56:55;;;;;;;0.63;0.40;;;;;;;;;;5050977;28;20448;-79
2022/09/09 05:59:23;;;;;;;0.20;0.20;;;;;;;;;;5032545;28;20040;-80
2022/09/09 06:01:50;;;;;;;0.20;0.20;;;;;;;;;;5033553;28;20112;-76
2022/09/09 06:04:24;;;;;;;1.35;1.30;;;;;;;;;;5034820;28;20510;-80
2022/09/09 06:06:50;;;;;;;0.20;0.20;;;;;;;;;;5034329;28;20353;-75
2022/09/09 06:09:18;;;;;;;0.20;0.20;;;;;;;;;;5039614;28;20021;-75
2022/09/09 06:11:43;;;;;;;0.20;0.20;;;;;;;;;;5049524;28;20029;-77
2022/09/09 06:14:10;;;;;;;0.20;0.20;;;;;;;;;;5032294;28;20071;-77
2022/09/09 06:16:37;;;;;;;0.20;0.20;;;;;;;;;;5032570;28;20060;-77
2022/09/09 06:19:05;;;;;;;2.28;1.65;;;;;;;;;;5014770;28;20024;-76
2022/09/09 06:21:32;;;;;;;0.20;0.20;;;;;;;;;;5029539;28;20037;-77
2022/09/09 06:24:00;;;;;;;0.28;0.28;;;;;;;;;;5048823;28;20025;-78
2022/09/09 06:26:28;;;;;;;0.10;0.10;;;;;;;;;;5049062;28;20033;-77
2022/09/09 06:28:55;;;;;;;0.20;0.20;;;;;;;;;;5048611;28;20163;-77
2022/09/09 06:31:23;;;;;;;0.30;0.30;;;;;;;;;;5029756;28;20408;-76
2022/09/09 06:33:50;;;;;;;0.20;0.20;;;;;;;;;;5030272;28;20082;-77
2022/09/09 06:36:20;;;;;;;0.20;0.20;;;;;;;;;;5030595;28;20033;-78
2022/09/09 06:38:45;;;;;;;0.20;0.20;;;;;;;;;;5030044;28;20037;-76
2022/09/09 06:41:14;;;;;;;0.20;0.20;;;;;;;;;;5013331;28;20036;-77
2022/09/09 06:43:40;;;;;;;0.30;0.30;;;;;;;;;;5031392;28;20063;-78
2022/09/09 06:46:20;;;;;;;0.30;0.30;;;;;;;;;;5033030;28;20125;-76
2022/09/09 06:48:46;;;;;;;0.25;0.25;;;;;;;;;;5051554;28;20036;-76
2022/09/09 06:51:23;;;;;;;0.30;0.30;;;;;;;;;;5051247;28;20049;-76
2022/09/09 06:53:53;;;;;;;0.20;0.20;;;;;;;;;;5051287;28;20036;-76
2022/09/09 06:56:23;;;;;;;0.28;0.28;;;;;;;;;;5047474;28;20029;-76
2022/09/09 06:58:52;;;;;;;0.50;0.50;;;;;;;;;;5013985;28;20029;-76
2022/09/09 07:01:25;;;;;;;2.15;2.05;;;;;;;;;;5013335;28;20090;-78
2022/09/09 07:03:52;;;;;;;0.30;0.30;;;;;;;;;;4997290;28;20029;-77
2022/09/09 07:06:20;;;;;;;0.30;0.30;;;;;;;;;;5013235;28;20116;-76
2022/09/09 07:08:53;;;;;;;0.40;0.40;;;;;;;;;;4996883;28;20025;-78
2022/09/09 07:11:20;;;;;;;0.40;0.40;;;;;;;;;;5013353;28;20072;-76
2022/09/09 07:13:46;;;;;;;1.58;1.52;;;;;;;;;;4996683;28;20424;-77
2022/09/09 07:16:14;;;;;;;0.32;0.32;;;;;;;;;;5013610;28;20069;-77
2022/09/09 07:18:40;;;;;;;0.30;0.30;;;;;;;;;;5013202;28;20040;-76
2022/09/09 07:21:06;;;;;;;0.30;0.30;;;;;;;;;;5012869;28;20026;-76
2022/09/09 07:23:32;;;;;;;0.30;0.30;;;;;;;;;;5012954;28;20068;-76
2022/09/09 07:25:59;;;;;;;0.30;0.30;;;;;;;;;;4996831;28;20026;-76
2022/09/09 07:28:26;;;;;;;0.30;0.30;;;;;;;;;;5012743;28;20033;-76
2022/09/09 07:30:55;;;;;;;0.30;0.30;;;;;;;;;;5012876;28;20041;-75
2022/09/09 07:33:21;;;;;;;0.40;0.40;;;;;;;;;;5012845;28;20120;-75
2022/09/09 07:35:46;;;;;;;0.30;0.30;;;;;;;;;;5012329;28;20467;-76
2022/09/09 07:38:12;;;;;;;0.30;0.30;;;;;;;;;;4996418;28;20465;-76
2022/09/09 07:40:38;;;;;;;0.30;0.30;;;;;;;;;;5030850;28;20029;-76
2022/09/09 07:43:04;;;;;;;0.40;0.40;;;;;;;;;;4996057;28;20052;-75
2022/09/09 07:45:30;;;;;;;1.33;1.23;;;;;;;;;;5012391;28;20079;-75
2022/09/09 07:47:56;;;;;;;2.05;1.88;;;;;;;;;;4995983;28;20495;-76
2022/09/09 07:50:23;;;;;;;0.30;0.30;;;;;;;;;;4996073;28;20092;-76
2022/09/09 07:52:50;;;;;;;0.35;0.35;;;;;;;;;;5012322;28;20026;-79
2022/09/09 07:55:16;;;;;;;0.30;0.30;;;;;;;;;;5012643;28;20033;-76
2022/09/09 07:57:42;;;;;;;0.40;0.40;;;;;;;;;;5012276;28;20022;-76
2022/09/09 08:00:10;;;;;;;0.35;0.35;;;;;;;;;;5029036;28;20583;-74
2022/09/09 08:02:40;;;;;;;0.40;0.40;;;;;;;;;;5012280;28;20029;-75
2022/09/09 08:07:16;;;;;;;0.40;0.40;;;;;;;;;;5051410;27;1371686;-75
2022/09/09 08:09:47;;;;;;;1.02;1.02;;;;;;;;;;5068800;28;20486;-78
2022/09/09 08:12:19;;;;;;;0.30;0.30;;;;;;;;;;5053588;28;20058;-79
2022/09/09 08:14:45;;;;;;;16.35;3.13;;;;;;;;;;5052791;28;20028;-76
2022/09/09 08:17:10;;;;;;;0.50;0.50;;;;;;;;;;5052455;28;20086;-74
2022/09/09 08:19:37;;;;;;;0.40;0.40;;;;;;;;;;5068724;28;20024;-75
2022/09/09 08:22:07;;;;;;;0.30;0.30;;;;;;;;;;5086989;28;20028;-78
2022/09/09 08:24:34;;;;;;;0.40;0.40;;;;;;;;;;5052354;28;20063;-75
2022/09/09 08:27:01;;;;;;;0.40;0.40;;;;;;;;;;5069107;28;20059;-75
2022/09/09 08:29:29;;;;;;;0.85;0.73;;;;;;;;;;5068939;28;20127;-75
2022/09/09 08:31:57;;;;;;;0.30;0.30;;;;;;;;;;5052160;28;20032;-75
2022/09/09 08:34:24;;;;;;;0.30;0.30;;;;;;;;;;5052473;28;20036;-75
2022/09/09 08:36:50;;;;;;;0.40;0.40;;;;;;;;;;5051810;28;20540;-75
2022/09/09 08:39:19;;;;;;;1.77;0.63;;;;;;;;;;5068309;28;20055;-75
2022/09/09 08:41:52;;;;;;;0.63;0.63;;;;;;;;;;5052101;28;20028;-74
2022/09/09 08:44:36;;;;;;;0.50;0.50;;;;;;;;;;5068815;28;20036;-75
2022/09/09 08:47:07;;;;;;;1.75;1.45;;;;;;;;;;5051642;28;20540;-77
2022/09/09 08:49:49;;;;;;;0.30;0.30;;;;;;;;;;5051364;28;20047;-77
2022/09/09 08:52:20;;;;;;;4.95;2.88;;;;;;;;;;5051399;28;20127;-74
2022/09/09 08:54:46;;;;;;;0.45;0.45;;;;;;;;;;5067982;28;20032;-74
2022/09/09 08:57:16;;;;;;;0.55;0.55;;;;;;;;;;5051285;28;20032;-74
2022/09/09 08:59:42;;;;;;;0.30;0.30;;;;;;;;;;5067317;28;20047;-74
2022/09/09 09:02:21;;;;;;;0.30;0.30;;;;;;;;;;5051147;28;20020;-74
2022/09/09 09:04:54;;;;;;;0.40;0.40;;;;;;;;;;5067531;28;20024;-73
2022/09/09 09:07:47;;;;;;;0.70;0.70;;;;;;;;;;5063678;28;20057;-74
2022/09/09 09:10:21;;;;;;;1.23;1.13;;;;;;;;;;5064477;28;20417;-73
2022/09/09 09:12:47;;;;;;;0.40;0.40;;;;;;;;;;5064317;28;20059;-76
2022/09/09 09:15:23;;;;;;;0.38;0.38;;;;;;;;;;5048359;28;20029;-77
2022/09/09 09:17:51;;;;;;;1.60;1.50;;;;;;;;;;5037303;28;20044;-74
2022/09/09 09:20:20;;;;;;;0.40;0.40;;;;;;;;;;5050757;28;20044;-74
2022/09/09 09:22:50;;;;;;;0.77;0.50;;;;;;;;;;5050963;28;20040;-73
2022/09/09 09:25:18;;;;;;;0.40;0.40;;;;;;;;;;5034677;28;20048;-74
2022/09/09 09:27:49;;;;;;;0.40;0.40;;;;;;;;;;5035075;28;20029;-74
2022/09/09 09:30:20;;;;;;;2.65;0.98;;;;;;;;;;5050725;28;20021;-73
2022/09/09 09:32:51;;;;;;;0.40;0.40;;;;;;;;;;5034322;28;20033;-72
2022/09/09 09:35:17;;;;;;;0.40;0.40;;;;;;;;;;5034751;28;20036;-73
2022/09/09 09:37:46;;;;;;;0.50;0.50;;;;;;;;;;5033919;28;20446;-73
2022/09/09 09:40:14;;;;;;;3.28;2.20;;;;;;;;;;5050651;28;20021;-73
2022/09/09 09:42:51;;;;;;;0.60;0.60;;;;;;;;;;5034086;28;20063;-74
2022/09/09 09:45:34;;;;;;;0.40;0.40;;;;;;;;;;5050411;28;20528;-74
2022/09/09 09:48:02;;;;;;;0.35;0.35;;;;;;;;;;5034004;28;20434;-72
2022/09/09 09:50:29;;;;;;;0.43;0.43;;;;;;;;;;5050513;28;20033;-74
2022/09/09 09:53:00;;;;;;;0.40;0.40;;;;;;;;;;5033769;28;20029;-74
2022/09/09 09:55:29;;;;;;;0.35;0.35;;;;;;;;;;5034010;28;20102;-75
2022/09/09 09:58:00;;;;;;;0.98;0.60;;;;;;;;;;5050257;28;20029;-73
2022/09/09 10:00:26;;;;;;;0.50;0.50;;;;;;;;;;5033668;28;20119;-74
2022/09/09 10:03:02;;;;;;;0.40;0.40;;;;;;;;;;5035452;28;20037;-74
2022/09/09 10:05:31;;;;;;;0.40;0.40;;;;;;;;;;5033713;28;20386;-74
2022/09/09 10:08:06;;;;;;;0.40;0.40;;;;;;;;;;5034411;28;20049;-74
2022/09/09 10:10:35;;;;;;;0.40;0.40;;;;;;;;;;5034004;28;20029;-75
2022/09/09 10:13:21;;;;;;;0.40;0.40;;;;;;;;;;5051094;28;20048;-75
2022/09/09 10:15:58;;;;;;;0.50;0.50;;;;;;;;;;5050245;28;20044;-76
2022/09/09 10:18:36;;;;;;;0.50;0.50;;;;;;;;;;5051429;28;20036;-74
2022/09/09 10:21:20;;;;;;;0.55;0.55;;;;;;;;;;5033347;28;20060;-74
2022/09/09 10:24:05;;;;;;;0.35;0.35;;;;;;;;;;5050142;28;20040;-74
2022/09/09 10:26:40;;;;;;;0.55;0.55;;;;;;;;;;5050070;28;20383;-75
2022/09/09 10:29:22;;;;;;;0.50;0.50;;;;;;;;;;5048743;28;20120;-74
2022/09/09 10:32:02;;;;;;;0.50;0.50;;;;;;;;;;5050541;28;20478;-78
2022/09/09 10:34:47;;;;;;;0.50;0.50;;;;;;;;;;5032893;28;20044;-75
2022/09/09 10:37:23;;;;;;;1.50;0.85;;;;;;;;;;5051077;28;20055;-77
2022/09/09 10:39:50;;;;;;;0.60;0.60;;;;;;;;;;5032843;28;20472;-77
2022/09/09 10:42:18;;;;;;;0.60;0.60;;;;;;;;;;5050752;28;20051;-76
2022/09/09 10:44:43;;;;;;;0.50;0.50;;;;;;;;;;5032990;28;20056;-74
2022/09/09 10:47:09;;;;;;;0.50;0.50;;;;;;;;;;5049218;28;20197;-75
2022/09/09 10:49:53;;;;;;;0.30;0.30;;;;;;;;;;5050166;28;20021;-75
2022/09/09 10:52:24;;;;;;;0.60;0.60;;;;;;;;;;5049901;28;20098;-77
2022/09/09 10:54:58;;;;;;;6.82;0.60;;;;;;;;;;5032475;28;20100;-73
2022/09/09 10:57:39;;;;;;;5.05;0.90;;;;;;;;;;5049225;28;20375;-75
2022/09/09 11:00:06;;;;;;;1.85;0.68;;;;;;;;;;5049391;28;20380;-76
2022/09/09 11:02:33;;;;;;;9.18;1.58;;;;;;;;;;5049423;28;20204;-75
2022/09/09 11:05:01;;;;;;;1.30;1.17;;;;;;;;;;5049127;28;20220;-75
2022/09/09 11:07:39;;;;;;;1.48;0.70;;;;;;;;;;5062092;28;20040;-80
2022/09/09 11:10:07;;;;;;;0.40;0.40;;;;;;;;;;5052546;28;20395;-75
2022/09/09 11:12:36;;;;;;;0.40;0.40;;;;;;;;;;5035524;28;20070;-76
2022/09/09 11:15:28;;;;;;;0.40;0.40;;;;;;;;;;5035463;28;20044;-75
2022/09/09 11:17:56;;;;;;;0.60;0.60;;;;;;;;;;5065405;28;20442;-75
2022/09/09 11:20:25;;;;;;;3.13;1.10;;;;;;;;;;5052092;28;20029;-76
2022/09/09 11:23:00;;;;;;;0.40;0.40;;;;;;;;;;5051979;28;20463;-76
2022/09/09 11:25:29;;;;;;;0.43;0.43;;;;;;;;;;5035291;28;20123;-76
2022/09/09 11:28:07;;;;;;;0.40;0.40;;;;;;;;;;5051701;28;20032;-75
2022/09/09 11:30:40;;;;;;;0.40;0.40;;;;;;;;;;5034921;28;20024;-76
2022/09/09 11:33:24;;;;;;;3.58;0.80;;;;;;;;;;5035319;28;20030;-75
2022/09/09 11:35:49;;;;;;;0.45;0.45;;;;;;;;;;5035208;28;20029;-75
2022/09/09 11:38:14;;;;;;;1.23;0.60;;;;;;;;;;5051836;28;20401;-76
2022/09/09 11:40:40;;;;;;;0.47;0.47;;;;;;;;;;5070745;28;20029;-76
2022/09/09 11:43:12;;;;;;;0.40;0.40;;;;;;;;;;5052333;28;20114;-76
2022/09/09 11:45:39;;;;;;;4.47;1.15;;;;;;;;;;5034827;28;20040;-76
2022/09/09 11:48:05;;;;;;;0.80;0.80;;;;;;;;;;5051601;28;20029;-75
2022/09/09 11:50:31;;;;;;;1.33;0.88;;;;;;;;;;5034930;28;20032;-74
2022/09/09 11:53:15;;;;;;;0.40;0.40;;;;;;;;;;5069886;28;20459;-75
2022/09/09 11:55:40;;;;;;;0.40;0.40;;;;;;;;;;5034971;28;20449;-76
2022/09/09 11:58:15;;;;;;;0.40;0.40;;;;;;;;;;5035093;28;20116;-75
2022/09/09 12:00:45;;;;;;;0.63;0.55;;;;;;;;;;5057067;28;20345;-76
2022/09/09 12:03:31;;;;;;;1.25;1.15;;;;;;;;;;5048933;28;20029;-75
2022/09/09 12:05:57;;;;;;;0.40;0.40;;;;;;;;;;5030483;28;20112;-74
2022/09/09 12:08:26;;;;;;;3.08;1.00;;;;;;;;;;5031592;28;20110;-75
2022/09/09 12:10:56;;;;;;;0.60;0.60;;;;;;;;;;5031469;28;20086;-77
2022/09/09 12:13:26;;;;;;;6.70;1.48;;;;;;;;;;5015009;28;20086;-74
2022/09/09 12:15:53;;;;;;;1.75;0.75;;;;;;;;;;5015245;28;20029;-76
2022/09/09 12:18:23;;;;;;;4.78;2.92;;;;;;;;;;5031935;28;20039;-74
2022/09/09 12:20:56;;;;;;;0.47;0.47;;;;;;;;;;5033067;28;20044;-75
2022/09/09 12:23:37;;;;;;;0.47;0.47;;;;;;;;;;5051357;28;20044;-77
2022/09/09 12:26:12;;;;;;;0.85;0.75;;;;;;;;;;5040311;28;20025;-78
2022/09/09 12:28:57;;;;;;;0.40;0.40;;;;;;;;;;5033428;28;20166;-74
2022/09/09 12:31:41;;;;;;;0.40;0.40;;;;;;;;;;5032881;28;20025;-74
2022/09/09 12:34:11;;;;;;;2.05;1.15;;;;;;;;;;5033778;28;20037;-76
2022/09/09 12:36:37;;;;;;;2.05;1.27;;;;;;;;;;5050259;28;20033;-76
2022/09/09 12:39:22;;;;;;;0.30;0.30;;;;;;;;;;5015384;28;20438;-76
2022/09/09 12:41:56;;;;;;;0.50;0.50;;;;;;;;;;5015261;28;20056;-75
2022/09/09 12:44:22;;;;;;;0.75;0.75;;;;;;;;;;5015898;28;20029;-75
2022/09/09 12:46:48;;;;;;;0.77;0.77;;;;;;;;;;5049282;28;20052;-75
2022/09/09 12:49:40;;;;;;;0.40;0.40;;;;;;;;;;5049414;28;20063;-75
2022/09/09 12:52:09;;;;;;;1.20;1.00;;;;;;;;;;5013028;28;20041;-75
2022/09/09 12:54:36;;;;;;;0.50;0.50;;;;;;;;;;5035437;28;20032;-76
2022/09/09 12:57:01;;;;;;;0.60;0.50;;;;;;;;;;5035697;28;20167;-74
2022/09/09 12:59:35;;;;;;;2.92;1.20;;;;;;;;;;5034700;28;20474;-75
2022/09/09 13:02:00;;;;;;;0.80;0.80;;;;;;;;;;5034848;28;20115;-75
2022/09/09 13:04:26;;;;;;;0.40;0.40;;;;;;;;;;5035458;28;20555;-76
2022/09/09 13:06:52;;;;;;;33.70;3.25;;;;;;;;;;5018284;28;20056;-77
2022/09/09 13:09:17;;;;;;;0.98;0.90;;;;;;;;;;5035620;28;20346;-75
2022/09/09 13:11:46;;;;;;;0.45;0.45;;;;;;;;;;5035588;28;20029;-74
2022/09/09 13:14:12;;;;;;;;;;;;;;;;;;5019224;28;20087;-78
2022/09/09 13:16:38;;;;;;;13.65;2.70;;;;;;;;;;5053183;28;19909;-76
2022/09/09 13:19:16;;;;;;;0.60;0.60;;;;;;;;;;5034779;28;20036;-78
2022/09/09 13:21:42;;;;;;;3.55;1.27;;;;;;;;;;5034507;28;20083;-76
2022/09/09 13:24:28;;;;;;;1.42;0.65;;;;;;;;;;5034940;28;20024;-75
2022/09/09 13:26:56;;;;;;;0.30;0.30;;;;;;;;;;5034485;28;20041;-76
2022/09/09 13:29:21;;;;;;;0.60;0.60;;;;;;;;;;5051297;28;20025;-75
2022/09/09 13:31:47;;;;;;;2.83;2.55;;;;;;;;;;5051984;28;20032;-76
2022/09/09 13:34:14;;;;;;;0.68;0.65;;;;;;;;;;5017861;28;20115;-74
2022/09/09 13:36:41;;;;;;;2.17;1.20;;;;;;;;;;5052101;28;20033;-75
2022/09/09 13:39:15;;;;;;;1.40;1.30;;;;;;;;;;5034194;28;20540;-74
2022/09/09 13:41:44;;;;;;;0.40;0.40;;;;;;;;;;5017336;28;20024;-75
2022/09/09 13:44:33;;;;;;;1.13;0.60;;;;;;;;;;5033705;28;20033;-74
2022/09/09 13:47:25;;;;;;;0.68;0.52;;;;;;;;;;5051624;28;20043;-76
2022/09/09 13:49:51;;;;;;;0.40;0.40;;;;;;;;;;5014103;28;20399;-77
2022/09/09 13:52:18;;;;;;;0.40;0.40;;;;;;;;;;5017615;28;20116;-76
2022/09/09 13:54:47;;;;;;;9.98;1.48;;;;;;;;;;5051384;28;20028;-77
2022/09/09 13:57:12;;;;;;;;;;;;;;;;;;5034212;28;20033;-75
2022/09/09 13:59:38;;;;;;;3.13;1.67;;;;;;;;;;5034053;28;19912;-74
2022/09/09 14:02:03;;;;;;;1.42;0.50;;;;;;;;;;5050057;28;20271;-75
2022/09/09 14:04:30;;;;;;;1.40;1.30;;;;;;;;;;5051235;28;20029;-79
2022/09/09 14:06:56;;;;;;;0.50;0.50;;;;;;;;;;5033849;28;20120;-76
2022/09/09 14:09:21;;;;;;;0.90;0.50;;;;;;;;;;5036478;28;20636;-76
2022/09/09 14:11:47;;;;;;;5.05;1.25;;;;;;;;;;5051573;28;20032;-79
2022/09/09 14:14:12;;;;;;;7.57;1.50;;;;;;;;;;5034947;28;20032;-76
2022/09/09 14:16:38;;;;;;;8.30;1.48;;;;;;;;;;5033919;28;20510;-75
2022/09/09 14:19:03;;;;;;;8.45;1.35;;;;;;;;;;5033638;28;20033;-75
2022/09/09 14:21:29;;;;;;;3.70;1.55;;;;;;;;;;5050845;28;20414;-79
2022/09/09 14:23:55;;;;;;;8.93;1.58;;;;;;;;;;5016776;28;20029;-74
2022/09/09 14:26:21;;;;;;;0.60;0.60;;;;;;;;;;5017222;28;20029;-74
2022/09/09 14:28:53;;;;;;;6.43;2.63;;;;;;;;;;5035504;28;20391;-75
2022/09/09 14:31:18;;;;;;;15.00;2.10;;;;;;;;;;5016934;28;20037;-73
2022/09/09 14:33:44;;;;;;;3.58;1.63;;;;;;;;;;5036657;28;20452;-74
2022/09/09 14:36:10;;;;;;;6.13;1.60;;;;;;;;;;5019459;28;20040;-75
2022/09/09 14:38:42;;;;;;;5.32;0.95;;;;;;;;;;5019378;28;20448;-73
2022/09/09 14:41:11;;;;;;;1.85;1.75;;;;;;;;;;5039272;28;20029;-75
2022/09/09 14:43:37;;;;;;;6.03;2.15;;;;;;;;;;5019636;28;20111;-75
2022/09/09 14:46:07;;;;;;;1.92;1.10;;;;;;;;;;5017874;28;20456;-75
2022/09/09 14:48:33;;;;;;;9.23;2.33;;;;;;;;;;5017850;28;20502;-75
2022/09/09 14:51:04;;;;;;;5.63;1.77;;;;;;;;;;5016116;28;20035;-76
2022/09/09 14:53:29;;;;;;;9.00;2.58;;;;;;;;;;5035824;28;20103;-76
2022/09/09 14:56:02;;;;;;;1.95;0.85;;;;;;;;;;5018552;28;20097;-76
2022/09/09 14:58:30;;;;;;;8.50;1.70;;;;;;;;;;5032712;28;20025;-76
2022/09/09 15:01:01;;;;;;;5.78;1.98;;;;;;;;;;5032446;28;20033;-75
2022/09/09 15:03:27;;;;;;;6.70;2.95;;;;;;;;;;5032875;28;20036;-76
2022/09/09 15:05:52;;;;;;;7.88;1.92;;;;;;;;;;5032145;28;20037;-76
2022/09/09 15:08:18;;;;;;;0.60;0.50;;;;;;;;;;5015196;28;20087;-76
2022/09/09 15:10:44;;;;;;;5.25;0.85;;;;;;;;;;5050171;28;20502;-76